createdAt,value
2023-04-26T00:05:42.950Z,80.57
2023-04-26T00:15:46.315Z,81.47
2023-04-26T00:25:51.051Z,80.37
2023-04-26T00:35:54.494Z,80.10
2023-04-26T00:45:59.847Z,80.20
2023-04-26T00:56:03.722Z,78.93
2023-04-26T01:06:08.826Z,79.97
2023-04-26T01:16:15.249Z,80.20
2023-04-26T01:26:20.308Z,79.23
2023-04-26T01:36:23.688Z,78.83
2023-04-26T01:46:30.042Z,77.70
2023-04-26T01:56:33.435Z,77.40
2023-04-26T02:06:39.300Z,77.10
2023-04-26T02:16:43.528Z,76.10
2023-04-26T02:26:48.315Z,78.10
2023-04-26T02:36:52.172Z,78.83
2023-04-26T02:46:56.990Z,80.60
2023-04-26T02:57:01.056Z,81.67
2023-04-26T03:07:06.254Z,76.93
2023-04-26T03:17:10.610Z,77.87
2023-04-26T03:27:15.563Z,75.97
2023-04-26T03:37:18.992Z,76.80
2023-04-26T03:47:31.154Z,77.20
2023-04-26T03:57:34.733Z,76.60
2023-04-26T04:07:39.703Z,76.30
2023-04-26T04:17:43.356Z,75.83
2023-04-26T04:27:50.278Z,77.17
2023-04-26T04:37:54.145Z,88.70
2023-04-26T04:47:59.152Z,102.03
2023-04-26T04:58:04.193Z,78.37
2023-04-26T05:08:10.430Z,77.73
2023-04-26T05:18:14.085Z,79.57
2023-04-26T05:28:19.587Z,78.43
2023-04-26T05:38:41.432Z,79.20
2023-04-26T05:48:46.575Z,79.50
2023-04-26T05:58:50.799Z,81.40
2023-04-26T06:08:55.892Z,81.50
2023-04-26T06:18:59.374Z,84.80
2023-04-26T06:29:07.321Z,89.30
2023-04-26T06:39:11.004Z,93.03
2023-04-26T06:49:17.280Z,94.23
2023-04-26T06:59:20.666Z,99.33
2023-04-26T07:09:25.899Z,96.13
2023-04-26T07:19:29.428Z,93.67
2023-04-26T07:29:34.137Z,92.80
2023-04-26T07:39:37.523Z,91.50
2023-04-26T07:49:42.636Z,91.13
2023-04-26T07:59:46.082Z,95.83
2023-04-26T08:09:50.787Z,95.87
2023-04-26T08:19:54.443Z,97.17
2023-04-26T08:30:00.396Z,93.47
2023-04-26T08:40:04.625Z,99.10
2023-04-26T08:50:12.452Z,96.97
2023-04-26T09:00:18.159Z,95.03
2023-04-26T09:10:23.596Z,95.50
2023-04-26T09:20:29.005Z,92.93
2023-04-26T09:30:40.602Z,94.37
2023-04-26T09:40:46.184Z,90.37
2023-04-26T09:50:53.512Z,91.37
2023-04-26T10:00:58.321Z,92.40
2023-04-26T10:11:05.073Z,92.10
2023-04-26T10:21:20.038Z,88.70
2023-04-26T10:31:24.884Z,87.57
2023-04-26T10:41:34.427Z,84.23
2023-04-26T10:51:39.240Z,85.43
2023-04-26T11:01:43.176Z,83.33
2023-04-26T11:11:54.465Z,83.67
2023-04-26T11:22:00.245Z,88.10
2023-04-26T11:32:05.958Z,89.57
2023-04-26T11:42:11.031Z,87.93
2023-04-26T11:52:16.282Z,85.70
2023-04-26T12:02:20.727Z,83.60
2023-04-26T12:12:25.537Z,90.20
2023-04-26T12:22:28.960Z,100.85
2023-04-26T12:32:33.735Z,110.43
2023-04-26T12:42:37.290Z,125.05
2023-04-26T12:52:43.453Z,111.70
2023-04-26T13:02:47.540Z,112.35
2023-04-26T13:12:53.906Z,113.07
2023-04-26T13:22:57.256Z,105.87
2023-04-26T13:33:02.264Z,99.53
2023-04-26T13:43:05.751Z,95.10
2023-04-26T13:53:10.548Z,90.90
2023-04-26T14:03:14.060Z,90.87
2023-04-26T14:13:18.928Z,89.43
2023-04-26T14:23:22.427Z,87.67
2023-04-26T14:33:27.203Z,84.67
2023-04-26T14:43:30.565Z,83.83
2023-04-26T14:53:35.395Z,84.07
2023-04-26T15:03:39.432Z,85.63
2023-04-26T15:13:45.351Z,88.47
2023-04-26T15:23:49.031Z,83.53
2023-04-26T15:33:56.481Z,82.90
2023-04-26T15:44:00.003Z,86.50
2023-04-26T15:54:04.937Z,89.00
2023-04-26T16:04:08.953Z,88.27
2023-04-26T16:14:13.780Z,81.87
2023-04-26T16:24:17.255Z,79.17
2023-04-26T16:34:22.052Z,90.67
2023-04-26T16:44:25.746Z,82.00
2023-04-26T16:54:30.458Z,80.80
2023-04-26T17:04:35.033Z,82.53
2023-04-26T17:14:41.064Z,82.07
2023-04-26T17:24:44.983Z,93.33
2023-04-26T17:34:49.778Z,78.67
2023-04-26T17:44:53.195Z,77.87
2023-04-26T17:54:58.068Z,76.63
2023-04-26T18:05:01.741Z,76.87
2023-04-26T18:15:08.668Z,78.60
2023-04-26T18:25:12.123Z,77.63
2023-04-26T18:35:17.143Z,83.07
2023-04-26T18:45:20.616Z,79.17
2023-04-26T18:55:26.158Z,81.30
2023-04-26T19:05:29.675Z,80.63
2023-04-26T19:15:34.447Z,78.83
2023-04-26T19:25:37.847Z,79.40
2023-04-26T19:35:43.659Z,79.10
2023-04-26T19:45:47.732Z,79.37
2023-04-26T19:55:52.550Z,76.87
2023-04-26T20:05:56.128Z,77.27
2023-04-26T20:16:00.881Z,77.10
2023-04-26T20:26:04.538Z,79.13
2023-04-26T20:36:09.673Z,83.57
2023-04-26T20:46:13.136Z,83.47
2023-04-26T20:56:17.881Z,80.27
2023-04-26T21:06:21.285Z,81.20
2023-04-26T21:16:26.234Z,79.73
2023-04-26T21:26:29.674Z,80.00
2023-04-26T21:36:34.474Z,82.07
2023-04-26T21:46:37.858Z,79.43
2023-04-26T21:56:43.691Z,83.07
2023-04-26T22:06:47.076Z,84.13
2023-04-26T22:16:51.855Z,85.37
2023-04-26T22:26:55.219Z,84.80
2023-04-26T22:37:13.009Z,86.97
2023-04-26T22:47:24.005Z,85.87
2023-04-26T22:57:29.854Z,87.30
2023-04-26T23:07:34.912Z,85.20
2023-04-26T23:17:41.878Z,87.63
2023-04-26T23:27:45.342Z,87.20
2023-04-26T23:37:52.429Z,85.53
2023-04-26T23:47:55.918Z,87.67
2023-04-26T23:58:00.733Z,87.27
